Terminal Aerodrome Forecast
Issued by NWS Charleston, SC

Home | Current Version | Previous Version | Text Only | Print | Product List | Glossary On
Versions: 1 2 3 4 5 6 7 8 9 10 11 12 13 14 15 16 17 18 19 20 21 22 23 24 25 26 27 28
000
FTUS42 KCHS 051225 AAA
TAFCHS
TAF AMD
KCHS 051225Z 0512/0612 20006KT 1SM BR OVC004 WS010/23035KT
      TEMPO 0514/0515 4SM BR SCT004
     FM051500 23013G23KT P6SM SCT030
     FM052300 35015G25KT 3SM RA SCT006 BKN015
     FM060300 36012G18KT 5SM -DZ BR OVC004=

USA.gov is the U.S. government's official web portal to all federal, state and local government web resources and services.